Time;durP1;ratioP1;P1;durP2;ratioP2;P2;SDS_P1;SDS_P2;PMS_P1;PMS_P2;Temp;Humidity;BMP_temperature;BMP_pressure;BME280_temperature;BME280_humidity;BME280_pressure;Samples;Min_cycle;Max_cycle;Signal;HPM_P1;HPM_P2
2022/07/28 00:00:43;;;;;;;3.20;1.90;;;19.60;63.50;;;18.91;49.60;97304.72;5030964;28;20403;-78
2022/07/28 00:03:09;;;;;;;8.67;2.07;;;19.60;63.70;;;18.90;49.73;97301.25;5030738;28;20962;-78
2022/07/28 00:05:36;;;;;;;3.28;1.67;;;19.60;63.90;;;18.79;50.02;97293.78;5031029;28;20399;-78
2022/07/28 00:08:02;;;;;;;4.80;1.50;;;19.50;64.00;;;18.76;50.12;97302.41;5031077;28;20439;-78
2022/07/28 00:10:28;;;;;;;3.78;1.70;;;19.50;64.30;;;18.74;50.19;97288.50;5030945;28;20457;-78
2022/07/28 00:12:55;;;;;;;5.47;1.63;;;19.50;64.40;;;18.71;50.25;97289.94;5029232;28;20406;-78
2022/07/28 00:15:21;;;;;;;5.20;2.00;;;19.40;64.30;;;18.74;49.87;97291.19;5030562;28;20425;-78
2022/07/28 00:17:47;;;;;;;3.63;1.60;;;19.40;64.10;;;18.67;50.02;97286.25;5030800;28;20912;-78
2022/07/28 00:20:13;;;;;;;3.17;1.40;;;19.40;64.20;;;18.62;50.25;97281.03;5030661;28;20398;-77
2022/07/28 00:22:42;;;;;;;5.07;1.70;;;19.30;65.20;;;18.54;50.28;97282.53;5030710;28;20403;-77
2022/07/28 00:25:09;;;;;;;5.25;1.65;;;19.30;64.60;;;18.53;50.53;97280.13;5028168;28;20399;-78
2022/07/28 00:27:35;;;;;;;3.28;1.63;;;19.30;64.70;;;18.48;50.59;97275.69;5030636;28;20399;-78
2022/07/28 00:30:03;;;;;;;5.78;2.00;;;19.30;64.90;;;18.42;51.12;97270.75;5030380;28;20434;-78
2022/07/28 00:32:29;;;;;;;3.50;1.50;;;19.20;65.20;;;18.34;51.20;97271.50;5030450;28;20403;-78
2022/07/28 00:34:55;;;;;;;7.23;2.43;;;19.10;65.40;;;18.23;51.65;97265.56;5028541;28;20473;-78
2022/07/28 00:37:21;;;;;;;4.13;1.60;;;19.00;65.70;;;18.17;51.69;97270.25;5030462;28;20406;-78
2022/07/28 00:39:47;;;;;;;3.42;1.70;;;18.90;66.00;;;18.13;51.86;97269.25;5030148;28;20407;-78
2022/07/28 00:42:17;;;;;;;8.00;1.98;;;18.90;66.20;;;18.05;51.88;97267.28;5030385;28;20400;-78
2022/07/28 00:44:43;;;;;;;5.00;1.75;;;18.80;66.30;;;18.01;51.99;97266.31;5029793;28;20764;-78
2022/07/28 00:47:11;;;;;;;5.38;1.80;;;18.80;66.50;;;17.97;52.39;97273.34;5030019;28;20421;-78
2022/07/28 00:49:37;;;;;;;7.00;2.10;;;18.70;66.70;;;17.85;52.99;97267.75;5030137;28;20482;-78
2022/07/28 00:52:05;;;;;;;7.03;1.70;;;18.60;67.30;;;17.86;52.25;97272.00;5030084;28;20409;-78
2022/07/28 00:54:32;;;;;;;5.13;1.92;;;18.60;67.10;;;17.74;53.14;97279.78;5029561;28;20868;-78
2022/07/28 00:56:58;;;;;;;4.50;1.90;;;18.50;67.40;;;17.75;52.77;97271.41;5030023;28;20543;-78
2022/07/28 00:59:24;;;;;;;3.20;1.70;;;18.50;67.60;;;17.71;52.88;97275.00;5029907;28;20419;-78
2022/07/28 01:01:50;;;;;;;4.00;2.00;;;18.50;67.50;;;17.69;52.85;97269.16;5029785;28;20842;-78
2022/07/28 01:04:18;;;;;;;5.43;2.20;;;18.40;67.40;;;17.66;52.95;97269.75;5029463;28;20403;-78
2022/07/28 01:06:57;;;;;;;5.20;2.30;;;18.40;67.70;;;17.48;53.65;97270.63;5029105;28;20391;-78
2022/07/28 01:09:40;;;;;;;5.55;1.80;;;18.30;68.00;;;17.49;53.38;97269.53;5029937;28;20872;-78
2022/07/28 01:12:19;;;;;;;5.90;2.10;;;18.30;68.30;;;17.40;54.27;97264.88;5027265;28;20406;-78
2022/07/28 01:14:49;;;;;;;5.57;2.00;;;18.20;68.80;;;17.40;53.50;97261.41;5029372;28;20395;-78
2022/07/28 01:17:25;;;;;;;5.68;2.00;;;18.20;68.70;;;17.35;54.11;97264.19;5029716;28;20399;-78
2022/07/28 01:20:05;;;;;;;6.80;2.13;;;18.10;68.70;;;17.30;54.22;97257.03;5027799;28;20908;-78
2022/07/28 01:22:38;;;;;;;5.28;2.00;;;18.00;69.10;;;17.29;53.86;97255.44;5027771;28;20406;-78
2022/07/28 01:25:20;;;;;;;6.78;2.35;;;18.10;68.80;;;17.29;54.08;97252.00;5029460;28;20915;-78
2022/07/28 01:28:04;;;;;;;3.17;2.05;;;18.10;68.80;;;17.20;54.44;97254.56;5029665;28;20403;-78
2022/07/28 01:30:38;;;;;;;5.72;2.55;;;18.00;69.40;;;17.17;54.43;97249.81;5027460;28;20426;-78
2022/07/28 01:33:12;;;;;;;4.75;1.95;;;17.90;69.30;;;17.15;54.45;97248.50;5029385;28;20437;-78
2022/07/28 01:35:45;;;;;;;3.43;1.80;;;17.90;69.60;;;17.14;54.59;97247.72;5029512;28;20415;-78
2022/07/28 01:38:13;;;;;;;3.97;2.13;;;17.90;69.70;;;17.00;55.19;97252.25;5027810;28;20423;-78
2022/07/28 01:40:42;;;;;;;3.85;1.77;;;17.80;70.10;;;17.01;55.19;97251.97;5028260;28;20494;-78
2022/07/28 01:43:16;;;;;;;8.25;2.20;;;17.80;70.40;;;16.96;54.90;97238.69;5026815;28;20910;-78
2022/07/28 01:45:44;;;;;;;4.25;2.08;;;17.70;70.20;;;16.93;55.04;97243.81;5028309;28;20899;-78
2022/07/28 01:48:13;;;;;;;6.18;2.10;;;17.70;70.40;;;16.95;54.96;97245.13;5029566;28;20403;-78
2022/07/28 01:50:42;;;;;;;4.20;2.10;;;17.70;70.30;;;16.93;55.26;97233.94;5029364;28;20890;-77
2022/07/28 01:53:12;;;;;;;5.70;2.00;;;17.70;70.50;;;16.86;55.13;97241.53;5026768;28;20487;-78
2022/07/28 01:55:41;;;;;;;6.55;2.00;;;17.60;70.40;;;16.83;55.26;97236.00;5029379;28;20968;-78
2022/07/28 01:58:08;;;;;;;7.40;2.83;;;17.60;70.50;;;16.76;55.25;97235.59;5026839;28;20399;-78
2022/07/28 02:00:35;;;;;;;6.70;2.30;;;17.50;70.80;;;16.68;55.59;97229.06;5029439;28;20872;-78
2022/07/28 02:03:05;;;;;;;4.00;1.80;;;17.40;70.80;;;16.67;56.08;97224.78;5028990;28;20410;-78
2022/07/28 02:05:35;;;;;;;4.15;1.90;;;17.40;71.20;;;16.57;56.28;97231.06;5027387;28;21148;-78
2022/07/28 02:08:03;;;;;;;7.03;2.08;;;17.30;71.70;;;16.54;56.12;97223.63;5029552;28;20399;-78
2022/07/28 02:10:32;;;;;;;6.50;2.30;;;17.30;71.70;;;16.50;56.45;97225.31;5027067;28;20492;-78
2022/07/28 02:13:00;;;;;;;6.38;2.08;;;17.30;72.00;;;16.43;56.22;97218.75;5029115;28;20512;-78
2022/07/28 02:15:28;;;;;;;6.82;2.22;;;17.20;71.60;;;16.41;56.84;97220.91;5029330;28;20415;-78
2022/07/28 02:17:55;;;;;;;3.22;1.90;;;17.10;72.40;;;16.41;56.65;97219.03;5031759;28;20760;-78
2022/07/28 02:20:22;;;;;;;6.82;2.20;;;17.20;72.50;;;16.46;56.44;97213.63;5032934;28;20403;-78
2022/07/28 02:22:51;;;;;;;6.53;2.10;;;17.20;72.00;;;16.42;56.41;97220.63;5030150;28;20439;-78
2022/07/28 02:25:17;;;;;;;4.28;2.20;;;17.20;72.00;;;16.40;56.55;97205.97;5032847;28;20395;-78
2022/07/28 02:27:48;;;;;;;6.80;1.80;;;17.20;72.20;;;16.35;56.41;97214.06;5032881;28;20402;-78
2022/07/28 02:30:17;;;;;;;6.03;1.75;;;17.20;72.30;;;16.32;56.81;97217.31;5032833;28;20540;-78
2022/07/28 02:32:49;;;;;;;7.57;2.20;;;17.10;72.50;;;16.29;57.05;97216.03;5032507;28;20407;-78
2022/07/28 02:35:26;;;;;;;2.83;1.60;;;17.10;72.70;;;16.31;56.98;97208.53;5032634;28;20423;-78
2022/07/28 02:37:59;;;;;;;3.80;2.00;;;17.10;72.80;;;16.33;56.85;97198.31;5030699;28;20399;-78
2022/07/28 02:40:32;;;;;;;3.88;1.90;;;17.10;72.70;;;16.35;56.93;97204.19;5047991;28;20395;-78
2022/07/28 02:43:00;;;;;;;8.07;2.33;;;17.20;72.90;;;16.34;56.71;97210.59;5032322;28;20884;-78
2022/07/28 02:45:28;;;;;;;3.55;1.80;;;17.20;72.50;;;16.34;56.87;97201.78;5032503;28;20431;-78
2022/07/28 02:48:00;;;;;;;6.88;1.92;;;17.10;72.60;;;16.26;56.83;97212.06;5032585;28;20400;-78
2022/07/28 02:50:28;;;;;;;4.77;2.20;;;17.00;72.80;;;16.30;57.04;97203.47;5032427;28;20777;-78
2022/07/28 02:53:00;;;;;;;4.47;1.80;;;17.10;73.00;;;16.23;56.97;97204.66;5030890;28;20768;-78
2022/07/28 02:55:28;;;;;;;4.03;1.80;;;17.00;72.80;;;16.20;56.90;97205.22;5032276;28;20505;-78
2022/07/28 02:57:56;;;;;;;4.10;1.92;;;17.00;72.70;;;16.11;57.10;97214.97;5032414;28;20410;-78
2022/07/28 03:00:24;;;;;;;4.80;2.00;;;16.90;73.10;;;16.12;57.32;97210.41;5032399;28;20456;-78
2022/07/28 03:02:51;;;;;;;5.13;1.90;;;16.90;73.20;;;16.15;57.14;97207.19;5032013;28;20482;-78
2022/07/28 03:05:17;;;;;;;6.68;2.22;;;17.00;73.30;;;16.18;57.33;97206.56;5032312;28;20419;-78
2022/07/28 03:07:45;;;;;;;4.20;1.83;;;17.00;73.40;;;16.18;57.23;97212.72;5032162;28;20405;-78
2022/07/28 03:10:19;;;;;;;6.73;2.43;;;17.00;73.30;;;16.17;57.12;97210.31;5032035;28;20799;-78
2022/07/28 03:12:45;;;;;;;4.60;1.90;;;17.00;73.20;;;16.12;57.50;97205.88;5031745;28;20538;-78
2022/07/28 03:15:11;;;;;;;5.30;2.10;;;16.90;73.40;;;16.10;57.42;97205.34;5031838;28;20415;-78
2022/07/28 03:17:37;;;;;;;5.17;2.07;;;16.80;73.40;;;16.06;57.58;97196.34;5031936;28;20488;-78
2022/07/28 03:20:05;;;;;;;6.90;2.10;;;16.80;73.40;;;15.99;57.90;97203.16;5031832;28;20406;-78
2022/07/28 03:22:31;;;;;;;3.10;1.70;;;16.70;74.00;;;15.99;57.62;97208.50;5031832;28;20494;-78
2022/07/28 03:24:59;;;;;;;4.22;2.00;;;16.80;74.30;;;16.02;57.50;97216.69;5031374;28;20410;-78
2022/07/28 03:27:32;;;;;;;4.40;1.92;;;16.80;74.00;;;16.02;57.46;97211.34;5031743;28;20414;-78
2022/07/28 03:30:02;;;;;;;4.80;1.80;;;16.80;73.70;;;15.99;57.44;97206.63;5030868;28;20395;-78
2022/07/28 03:32:31;;;;;;;6.45;2.40;;;16.80;73.60;;;16.01;57.56;97209.78;5029163;28;20528;-78
2022/07/28 03:34:59;;;;;;;6.53;2.13;;;16.80;73.70;;;15.93;57.60;97207.78;5031167;28;20757;-78
2022/07/28 03:37:31;;;;;;;4.10;1.88;;;16.70;73.70;;;15.90;57.73;97211.00;5031605;28;20399;-78
2022/07/28 03:39:59;;;;;;;6.60;2.00;;;16.70;74.00;;;15.87;58.02;97211.56;5031580;28;20395;-78
2022/07/28 03:42:27;;;;;;;4.78;1.98;;;16.70;74.40;;;15.81;58.45;97210.06;5031443;28;20425;-78
2022/07/28 03:44:55;;;;;;;4.78;2.03;;;16.60;74.50;;;15.79;58.21;97218.34;5030968;28;20864;-78
2022/07/28 03:47:22;;;;;;;3.07;2.07;;;16.60;74.80;;;15.77;58.65;97219.75;5031375;28;20890;-77
2022/07/28 03:49:48;;;;;;;6.20;2.35;;;16.60;75.00;;;15.74;58.44;97212.31;5028666;28;20399;-77
2022/07/28 03:52:15;;;;;;;3.13;1.90;;;16.50;74.90;;;15.73;58.72;97221.38;5031450;28;20429;-77
2022/07/28 03:54:41;;;;;;;4.95;2.10;;;16.50;75.20;;;15.71;58.69;97221.66;5030903;28;20402;-78
2022/07/28 03:57:09;;;;;;;4.63;1.73;;;16.50;75.30;;;15.71;58.71;97220.91;5031198;28;20422;-78
2022/07/28 03:59:35;;;;;;;3.60;1.80;;;16.50;75.10;;;15.71;58.39;97223.56;5031087;28;20403;-78
2022/07/28 04:02:01;;;;;;;6.45;2.28;;;16.50;75.00;;;15.71;58.58;97219.00;5031160;28;20791;-78
2022/07/28 04:04:27;;;;;;;4.90;2.05;;;16.50;75.20;;;15.69;58.43;97220.38;5030705;28;20430;-78
2022/07/28 04:06:53;;;;;;;4.53;1.80;;;16.50;75.20;;;15.71;58.66;97234.25;5030984;28;20904;-78
2022/07/28 04:09:19;;;;;;;4.55;1.90;;;16.50;75.20;;;15.67;58.67;97233.22;5031081;28;20403;-78
2022/07/28 04:11:45;;;;;;;5.32;2.20;;;16.50;75.30;;;15.64;58.24;97231.91;5030921;28;20403;-78
2022/07/28 04:14:12;;;;;;;5.20;2.08;;;16.50;75.20;;;15.65;58.67;97236.16;5030478;28;20403;-78
2022/07/28 04:16:38;;;;;;;7.15;2.00;;;16.50;75.30;;;15.66;58.67;97235.09;5030771;28;20502;-78
2022/07/28 04:19:04;;;;;;;3.15;1.75;;;16.50;75.40;;;15.70;58.58;97235.31;5030721;28;20409;-78
2022/07/28 04:21:30;;;;;;;4.80;2.10;;;16.50;75.30;;;15.71;58.81;97236.91;5029442;28;20418;-78
2022/07/28 04:23:56;;;;;;;5.20;1.90;;;16.50;75.50;;;15.72;58.52;97233.13;5030257;28;20403;-78
2022/07/28 04:26:22;;;;;;;6.80;2.37;;;16.50;75.30;;;15.75;58.82;97233.38;5030693;28;20429;-78
2022/07/28 04:28:48;;;;;;;5.80;2.37;;;16.50;75.50;;;15.70;58.94;97230.78;5027960;28;20399;-78
2022/07/28 04:31:15;;;;;;;5.22;2.05;;;16.50;75.80;;;15.74;59.02;97236.31;5030515;28;20487;-78
2022/07/28 04:33:42;;;;;;;3.90;1.80;;;16.50;75.90;;;15.78;59.04;97232.81;5030038;28;20938;-77
2022/07/28 04:36:08;;;;;;;5.47;2.30;;;16.60;76.70;;;15.84;58.70;97230.84;5030570;28;20892;-77
2022/07/28 04:38:35;;;;;;;8.13;2.22;;;16.60;75.60;;;15.88;59.12;97232.66;5030464;28;20411;-77
2022/07/28 04:41:01;;;;;;;5.43;1.90;;;16.60;75.90;;;15.91;58.91;97233.16;5029008;28;20991;-78
2022/07/28 04:43:27;;;;;;;9.82;2.20;;;16.70;76.00;;;15.97;59.17;97232.81;5029801;28;20465;-78
2022/07/28 04:45:53;;;;;;;8.13;2.60;;;16.70;76.10;;;15.95;59.59;97220.81;5030408;28;20395;-78
2022/07/28 04:48:21;;;;;;;4.47;1.80;;;16.70;76.40;;;15.98;59.53;97218.38;5030291;28;20399;-77
2022/07/28 04:50:48;;;;;;;10.27;2.30;;;16.80;76.60;;;16.00;59.53;97221.56;5030074;28;20843;-76
2022/07/28 04:53:14;;;;;;;7.20;2.03;;;16.80;76.60;;;16.05;59.30;97216.13;5028611;28;20764;-77
2022/07/28 04:55:40;;;;;;;3.23;1.80;;;16.80;76.50;;;16.09;59.65;97222.47;5030103;28;20423;-76
2022/07/28 04:58:06;;;;;;;2.72;1.60;;;16.90;77.00;;;16.17;59.54;97226.34;5028904;28;20926;-77
2022/07/28 05:00:32;;;;;;;2.60;1.60;;;16.90;77.00;;;16.27;59.53;97221.66;5030090;28;20432;-77
2022/07/28 05:02:58;;;;;;;5.80;1.77;;;17.00;77.00;;;16.41;59.43;97223.56;5029649;28;20448;-77
2022/07/28 05:05:25;;;;;;;3.17;2.00;;;17.20;76.90;;;16.51;59.63;97220.75;5030002;28;20506;-77
2022/07/28 05:07:53;;;;;;;5.80;2.40;;;17.30;76.90;;;16.59;59.81;97220.88;5029944;28;20399;-77
2022/07/28 05:10:19;;;;;;;6.57;1.80;;;17.40;77.10;;;16.67;59.82;97221.31;5029980;28;20403;-77
2022/07/28 05:12:46;;;;;;;3.75;1.85;;;17.50;77.30;;;16.73;60.00;97220.94;5029702;28;20406;-78
2022/07/28 05:15:13;;;;;;;5.10;2.10;;;17.50;77.50;;;16.81;59.04;97233.63;5029901;28;20445;-77
2022/07/28 05:17:38;;;;;;;4.28;1.90;;;17.60;76.50;;;16.88;58.29;97233.22;5029937;28;20460;-77
2022/07/28 05:20:07;;;;;;;3.80;1.90;;;17.60;75.80;;;16.91;58.17;97233.44;5029791;28;20403;-77
2022/07/28 05:22:43;;;;;;;3.70;1.75;;;17.60;75.50;;;16.93;58.41;97231.25;5029922;28;20494;-77
2022/07/28 05:25:16;;;;;;;5.28;1.95;;;17.70;75.60;;;16.98;58.30;97228.50;5027159;28;20407;-75
2022/07/28 05:27:42;;;;;;;3.63;1.80;;;17.70;75.60;;;17.06;57.79;97223.56;5029837;28;20630;-75
2022/07/28 05:30:10;;;;;;;4.35;2.17;;;17.80;75.20;;;17.14;57.37;97220.97;5029746;28;20406;-77
2022/07/28 05:32:36;;;;;;;3.65;1.80;;;17.90;74.70;;;17.23;57.33;97218.38;5028260;28;20506;-76
2022/07/28 05:35:02;;;;;;;8.10;2.55;;;18.00;74.50;;;17.28;56.37;97215.63;5028389;28;20418;-76
2022/07/28 05:37:31;;;;;;;3.22;1.65;;;18.00;73.40;;;17.29;56.67;97223.34;5029272;28;20476;-77
2022/07/28 05:39:58;;;;;;;2.90;1.80;;;18.00;73.30;;;17.29;56.69;97226.03;5029220;28;20395;-79
2022/07/28 05:42:27;;;;;;;3.73;2.00;;;18.00;73.70;;;17.31;56.83;97225.72;5029056;28;20414;-78
2022/07/28 05:44:53;;;;;;;3.03;1.73;;;18.10;73.90;;;17.29;56.79;97225.25;5026643;28;20403;-78
2022/07/28 05:47:19;;;;;;;3.80;1.90;;;18.10;73.80;;;17.30;56.92;97216.09;5028807;28;20396;-78
2022/07/28 05:49:45;;;;;;;4.10;2.13;;;18.10;74.00;;;17.30;57.13;97222.25;5029358;28;20752;-76
2022/07/28 05:52:10;;;;;;;3.20;1.90;;;18.10;74.30;;;17.35;57.18;97219.50;5076452;22;20518;-75
2022/07/28 05:54:36;;;;;;;4.63;1.90;;;18.10;74.40;;;17.41;57.18;97225.53;5072999;28;20395;-75
2022/07/28 05:57:04;;;;;;;3.00;2.05;;;18.10;74.40;;;17.46;57.16;97228.09;5057125;28;20427;-75
2022/07/28 05:59:30;;;;;;;4.55;2.00;;;18.20;74.30;;;17.51;56.96;97235.25;5053696;28;20429;-75
2022/07/28 06:01:55;;;;;;;3.57;1.90;;;18.20;74.10;;;17.55;56.59;97228.97;5036950;28;20994;-75
2022/07/28 06:04:21;;;;;;;6.00;2.30;;;18.30;73.80;;;17.59;55.65;97231.88;5033319;28;20403;-75
2022/07/28 06:06:47;;;;;;;6.07;1.80;;;18.30;72.70;;;17.62;56.07;97226.72;5033737;28;20485;-75
2022/07/28 06:09:13;;;;;;;5.33;2.20;;;18.30;72.90;;;17.70;56.26;97223.34;5033584;28;20407;-74
2022/07/28 06:11:39;;;;;;;5.17;2.00;;;18.40;73.30;;;17.75;56.24;97225.09;5033711;28;20414;-75
2022/07/28 06:14:06;;;;;;;5.00;2.00;;;18.50;73.50;;;17.79;56.36;97226.91;5033131;28;20407;-75
2022/07/28 06:16:32;;;;;;;5.57;2.20;;;18.50;73.40;;;17.87;56.21;97222.72;5046277;28;20413;-75
2022/07/28 06:18:58;;;;;;;6.75;2.10;;;18.50;73.50;;;17.91;56.27;97222.88;5045014;28;20415;-75
2022/07/28 06:21:24;;;;;;;9.20;2.55;;;18.60;73.40;;;17.95;56.32;97224.69;5053262;28;20504;-74
2022/07/28 06:23:50;;;;;;;8.82;2.83;;;18.60;73.40;;;17.99;56.10;97230.22;5050358;28;20478;-75
2022/07/28 06:26:16;;;;;;;4.77;2.17;;;18.70;73.20;;;18.01;56.35;97226.16;5049217;28;20881;-75
2022/07/28 06:28:42;;;;;;;8.63;2.25;;;18.70;73.40;;;18.05;56.37;97224.44;5051911;28;20405;-75
2022/07/28 06:31:09;;;;;;;10.30;2.65;;;18.70;73.60;;;18.08;56.58;97223.84;5049106;28;21020;-76
2022/07/28 06:33:35;;;;;;;5.72;2.30;;;18.80;73.70;;;18.12;56.71;97227.47;5043162;28;20482;-75
2022/07/28 06:36:01;;;;;;;6.85;2.60;;;18.80;73.90;;;18.17;56.97;97230.06;5046784;28;20876;-75
2022/07/28 06:38:27;;;;;;;6.05;2.40;;;18.80;74.10;;;18.22;56.65;97228.34;5049542;28;20420;-75
2022/07/28 06:40:53;;;;;;;5.18;2.60;;;18.90;73.90;;;18.25;56.75;97230.44;5052969;28;20890;-76
2022/07/28 06:43:19;;;;;;;7.43;2.97;;;18.90;74.00;;;18.27;56.61;97215.63;5052776;28;20463;-76
2022/07/28 06:45:45;;;;;;;4.88;2.70;;;19.00;74.00;;;18.31;56.65;97221.97;5050417;28;20401;-76
2022/07/28 06:48:13;;;;;;;4.55;2.50;;;19.00;73.90;;;18.36;56.59;97231.75;5051556;28;20827;-76
2022/07/28 06:50:39;;;;;;;4.53;2.70;;;19.00;73.80;;;18.40;56.68;97222.03;5052621;28;20406;-76
2022/07/28 06:53:05;;;;;;;5.10;2.92;;;19.00;73.90;;;18.43;56.72;97224.88;5052539;28;20394;-76
2022/07/28 06:55:32;;;;;;;5.60;3.13;;;19.10;74.10;;;18.48;56.78;97221.31;5052566;28;21020;-76
2022/07/28 06:57:58;;;;;;;10.52;3.83;;;19.10;74.20;;;18.51;56.97;97216.09;5052642;28;20405;-76
2022/07/28 07:00:24;;;;;;;8.38;3.60;;;19.20;74.30;;;18.57;57.05;97221.38;5052612;28;20791;-77
2022/07/28 07:02:50;;;;;;;9.05;3.38;;;19.20;74.30;;;18.59;56.95;97217.28;5051804;28;20433;-77
2022/07/28 07:05:17;;;;;;;7.00;3.63;;;19.20;74.30;;;18.62;56.88;97224.72;5051942;28;20841;-77
2022/07/28 07:07:43;;;;;;;6.85;3.38;;;19.30;74.40;;;18.67;56.93;97221.13;5052654;28;20402;-77
2022/07/28 07:10:10;;;;;;;5.80;3.55;;;19.30;74.50;;;18.76;57.11;97221.97;5052322;28;20900;-77
2022/07/28 07:12:36;;;;;;;7.32;3.33;;;19.40;74.60;;;18.79;57.04;97216.78;5052736;28;20410;-77
2022/07/28 07:15:04;;;;;;;6.00;3.50;;;19.40;74.40;;;18.84;57.02;97213.19;5052064;28;20413;-77
2022/07/28 07:17:30;;;;;;;8.52;3.83;;;19.50;74.60;;;18.85;57.07;97212.88;5052196;28;20417;-77
2022/07/28 07:19:56;;;;;;;5.65;3.78;;;19.50;74.60;;;18.90;57.25;97210.03;5051047;28;20500;-77
2022/07/28 07:22:24;;;;;;;10.10;3.50;;;19.50;74.80;;;18.94;57.13;97199.50;5052128;28;20401;-77
2022/07/28 07:24:50;;;;;;;8.52;3.90;;;19.60;74.80;;;19.00;57.63;97209.00;5051351;28;20406;-77
2022/07/28 07:27:16;;;;;;;6.78;3.67;;;19.60;75.20;;;19.07;57.47;97208.53;5052175;28;20447;-78
2022/07/28 07:29:42;;;;;;;8.23;4.10;;;19.70;75.10;;;19.10;57.38;97214.06;5052095;28;20897;-77
2022/07/28 07:32:08;;;;;;;8.25;4.05;;;19.70;75.10;;;19.16;57.46;97212.06;5050731;28;20408;-77
2022/07/28 07:34:34;;;;;;;9.75;4.45;;;19.70;75.20;;;19.21;57.42;97219.97;5051521;28;20758;-78
2022/07/28 07:36:59;;;;;;;9.35;4.35;;;19.80;75.10;;;19.28;56.40;97212.25;5052030;28;20928;-76
2022/07/28 07:39:27;;;;;;;9.52;4.57;;;19.90;74.40;;;19.29;56.63;97208.47;5051968;28;20429;-76
2022/07/28 07:41:53;;;;;;;8.07;4.50;;;19.90;74.10;;;19.31;57.20;97207.06;5051472;28;20486;-76
2022/07/28 07:44:18;;;;;;;11.18;4.22;;;19.90;74.60;;;19.36;57.15;97205.31;5051575;28;20945;-77
2022/07/28 07:46:44;;;;;;;7.90;3.90;;;20.00;74.90;;;19.43;57.19;97201.06;5051556;28;20398;-76
2022/07/28 07:49:10;;;;;;;9.55;4.90;;;20.00;74.90;;;19.46;57.37;97208.53;5050133;28;20421;-76
2022/07/28 07:51:36;;;;;;;9.35;4.30;;;20.10;75.10;;;19.53;56.99;97206.19;5050365;28;20500;-76
2022/07/28 07:54:02;;;;;;;6.47;3.90;;;20.10;74.80;;;19.59;57.06;97212.19;5043045;28;20502;-76
2022/07/28 07:56:30;;;;;;;11.40;4.70;;;20.20;74.80;;;19.61;56.92;97212.69;5048903;28;20424;-76
2022/07/28 07:58:57;;;;;;;8.77;4.80;;;20.20;74.70;;;19.65;56.41;97208.25;5051267;28;20401;-77
2022/07/28 08:01:23;;;;;;;7.25;4.28;;;20.30;74.40;;;19.72;56.35;97211.28;5050961;28;20426;-75
2022/07/28 08:03:50;;;;;;;12.88;4.78;;;20.30;74.00;;;19.79;56.44;97211.59;5050614;28;20475;-77
2022/07/28 08:06:16;;;;;;;9.67;4.40;;;20.40;74.20;;;19.83;57.09;97204.50;5051143;28;20446;-75
2022/07/28 08:08:42;;;;;;;9.60;4.33;;;20.40;74.80;;;19.86;56.49;97214.59;5051093;28;20405;-76
2022/07/28 08:11:09;;;;;;;5.87;4.27;;;20.50;74.30;;;19.94;56.56;97208.44;5050721;28;20413;-77
2022/07/28 08:13:37;;;;;;;9.48;4.47;;;20.50;74.40;;;20.01;56.56;97208.75;5050412;28;20405;-76
2022/07/28 08:16:03;;;;;;;9.55;4.78;;;20.60;74.30;;;20.09;56.75;97204.50;5050466;28;20886;-75
2022/07/28 08:18:29;;;;;;;13.27;5.03;;;20.70;74.60;;;20.22;55.52;97217.00;5050671;28;20427;-77
2022/07/28 08:20:55;;;;;;;9.30;4.82;;;20.80;73.50;;;20.29;55.04;97213.84;5050841;28;20874;-76
2022/07/28 08:23:21;;;;;;;8.73;4.70;;;20.90;72.90;;;20.33;55.59;97204.84;5050357;28;20401;-76
2022/07/28 08:25:47;;;;;;;9.97;4.90;;;20.90;73.00;;;20.40;55.68;97212.41;5050802;28;20472;-77
2022/07/28 08:28:13;;;;;;;6.75;4.00;;;21.00;73.40;;;20.52;55.87;97199.13;5050893;28;20497;-78
2022/07/28 08:30:40;;;;;;;9.32;4.63;;;21.10;73.70;;;20.67;55.66;97205.91;5050779;28;20496;-77
2022/07/28 08:33:06;;;;;;;8.52;4.28;;;21.20;73.40;;;20.78;55.55;97199.84;5050421;28;20463;-78
2022/07/28 08:35:34;;;;;;;6.60;3.95;;;21.30;73.10;;;20.95;54.98;97199.00;5050688;28;20910;-78
2022/07/28 08:38:00;;;;;;;8.85;4.55;;;21.40;72.90;;;21.03;54.74;97194.69;5050789;28;20977;-77
2022/07/28 08:40:28;;;;;;;11.18;5.15;;;21.60;72.80;;;21.12;53.77;97198.16;5050536;28;20500;-77
2022/07/28 08:43:02;;;;;;;8.05;4.38;;;21.70;71.20;;;21.26;54.00;97193.38;5050285;28;20397;-77
2022/07/28 08:45:29;;;;;;;6.97;4.28;;;21.80;71.40;;;21.42;54.33;97194.38;5050596;28;20732;-77
2022/07/28 08:47:59;;;;;;;7.60;4.70;;;21.90;72.00;;;21.58;53.47;97197.28;5048325;28;20397;-77
2022/07/28 08:50:26;;;;;;;8.48;4.85;;;22.10;71.20;;;21.65;52.81;97189.50;5045670;28;20433;-77
2022/07/28 08:52:53;;;;;;;12.48;4.75;;;22.20;70.10;;;21.76;51.99;97200.66;5043756;28;20407;-76
2022/07/28 08:55:23;;;;;;;9.23;4.63;;;22.30;68.90;;;21.87;51.87;97199.97;5046888;28;20401;-76
2022/07/28 08:57:50;;;;;;;5.85;4.05;;;22.40;68.70;;;21.96;52.39;97192.59;5050505;28;20400;-76
2022/07/28 09:00:16;;;;;;;10.38;4.90;;;22.50;69.30;;;22.04;52.20;97187.47;5050530;28;20504;-76
2022/07/28 09:02:46;;;;;;;8.70;4.18;;;22.60;69.10;;;22.15;52.64;97184.06;5050378;28;20498;-77
2022/07/28 09:05:14;;;;;;;7.37;4.23;;;22.70;69.50;;;22.31;52.71;97189.63;5050454;28;20481;-77
2022/07/28 09:07:41;;;;;;;8.17;4.37;;;22.80;69.60;;;22.42;52.75;97187.28;5050497;28;20396;-76
2022/07/28 09:10:10;;;;;;;9.43;4.90;;;22.90;69.60;;;22.56;52.27;97187.78;5050280;28;20480;-76
2022/07/28 09:12:38;;;;;;;6.53;4.35;;;23.00;69.10;;;22.71;52.05;97190.63;5050488;28;20412;-76
2022/07/28 09:15:07;;;;;;;5.63;3.92;;;23.20;68.90;;;22.81;51.66;97194.06;5045953;28;20425;-76
2022/07/28 09:17:34;;;;;;;9.00;4.10;;;23.30;68.50;;;22.81;51.75;97188.66;5046778;28;20421;-76
2022/07/28 09:20:00;;;;;;;7.68;4.90;;;23.30;68.40;;;22.76;51.29;97187.00;5049730;28;20802;-77
2022/07/28 09:22:28;;;;;;;8.98;4.30;;;23.30;68.00;;;22.78;51.91;97182.81;5037936;28;20916;-76
2022/07/28 09:24:54;;;;;;;9.27;4.45;;;23.30;68.70;;;22.90;52.02;97186.66;5048450;28;20828;-76
2022/07/28 09:27:20;;;;;;;6.22;4.00;;;23.40;68.90;;;23.05;51.98;97186.81;5046875;28;20893;-73
2022/07/28 09:29:57;;;;;;;6.93;4.07;;;23.50;68.80;;;23.15;51.80;97182.88;5049511;28;20393;-73
2022/07/28 09:32:24;;;;;;;8.60;4.18;;;23.60;68.60;;;23.16;51.53;97179.81;5045602;28;20449;-74
2022/07/28 09:34:51;;;;;;;6.15;4.10;;;23.70;68.30;;;23.17;51.53;97178.69;5042895;28;20413;-74
2022/07/28 09:37:18;;;;;;;7.22;3.75;;;23.70;68.20;;;23.26;51.87;97173.19;5045978;28;20449;-73
2022/07/28 09:39:46;;;;;;;6.30;4.10;;;23.70;68.60;;;23.50;51.66;97181.31;5040741;28;20415;-74
2022/07/28 09:42:12;;;;;;;6.57;4.05;;;23.90;68.70;;;23.73;50.78;97184.31;5040265;28;20500;-74
2022/07/28 09:44:39;;;;;;;6.47;4.10;;;24.20;67.60;;;23.91;50.59;97174.00;5044726;28;20420;-74
2022/07/28 09:47:22;;;;;;;7.32;3.92;;;24.30;66.90;;;24.21;49.59;97171.78;5037765;28;20394;-74
2022/07/28 09:49:49;;;;;;;9.50;4.55;;;24.60;66.60;;;24.36;48.17;97173.00;5043014;28;20420;-74
2022/07/28 09:52:28;;;;;;;8.07;4.67;;;24.80;64.40;;;24.55;48.20;97167.69;5048467;28;20902;-74
2022/07/28 09:55:01;;;;;;;7.72;4.53;;;24.90;64.30;;;24.63;46.64;97166.75;5039740;28;20428;-76
2022/07/28 09:57:27;;;;;;;7.50;4.45;;;25.10;62.70;;;24.75;47.51;97165.88;5062223;28;20426;-77
2022/07/28 09:59:54;;;;;;;8.18;4.35;;;25.10;62.80;;;24.93;47.01;97165.22;5046289;28;20515;-78
2022/07/28 10:02:23;;;;;;;10.30;4.35;;;25.30;62.80;;;24.94;46.34;97157.91;5046581;28;20733;-79
2022/07/28 10:04:53;;;;;;;6.37;4.00;;;25.40;61.50;;;24.90;46.01;97157.81;5029397;28;20403;-77
2022/07/28 10:07:20;;;;;;;8.50;4.85;;;25.40;61.00;;;24.98;45.79;97153.34;5031425;28;20414;-77
2022/07/28 10:09:57;;;;;;;7.15;4.05;;;25.40;60.60;;;25.05;45.36;97148.88;5035042;28;20488;-76
2022/07/28 10:12:26;;;;;;;8.80;4.57;;;25.50;60.60;;;25.16;45.66;97153.78;5036153;28;20403;-76
2022/07/28 10:14:54;;;;;;;6.22;4.18;;;25.60;60.80;;;25.29;46.12;97147.13;5038019;28;20418;-77
2022/07/28 10:17:29;;;;;;;7.28;3.80;;;25.70;61.10;;;25.45;45.88;97145.16;5039889;28;20500;-77
2022/07/28 10:19:57;;;;;;;6.65;3.90;;;25.90;61.30;;;25.71;45.14;97141.91;5043537;28;20417;-78